• pl
  • eng

Awiacja
TAF dla lotnisk wojskowych 16:30 23.07.2019

TAF EPCE 231400Z 2315/2324 30008KT 9999 BKN010 TEMPO 2315/2324 3000
RADZ BR OVC005 PROB40 TEMPO 2318/2324 VRB02KT 0300 FG OVC002=

TAF EPDA 231400Z 2315/2324 27010KT 8000 BKN015
PROB40 TEMPO 2315/2317 5000 BR BKN005 OVC010=

TAF COR EPDE 231400Z 2315/2324 31008KT CAVOK=

TAF EPDE 231400Z 2315/2324 31008KT CAVOK=

TAF EPIR 231400Z 2315/2324 27008KT 9999 BKN020 BECMG 2316/2318
BKN014=

TAF EPKS 231400Z 2315/2324 32006KT 9999 BKN025=

TAF EPLK 231400Z 2315/2324 30006KT 9999 BKN025=

TAF EPLY 231400Z 2315/2324 32008KT 9999 BKN030 BECMG 2320/2322
27004KT BKN017=

TAF EPMB 231400Z 2315/2324 27004KT 9999 BKN020 OVC100
PROB40 TEMPO 2315/2324 -RA SCT015 OVC020=

TAF EPMB 302300Z 3100/3109 22006KT CAVOK=

TAF EPMM 231400Z 2315/2324 34008KT 9999 BKN040=

TAF EPOK 231400Z 2315/2324 26005KT 8000 SCT008 BKN017 TEMPO 2315/2321
5000 RADZ BR BKN006 BECMG 2315/2317 30010KT PROB40 TEMPO
2315/2321 2000 DZ BR BKN004 OVC010=

TAF EPPR 231400Z 2315/2324 26006KT 9999 BKN020 TEMPO 2315/2319 4000
RADZ BKN009 OVC017 PROB30 TEMPO 2315/2319 2000 DZ BKN005 BECMG
2319/2321 5000 BR BKN008 OVC012=

TAF EPPW 231400Z 2315/2324 30008KT 9999 BKN025
PROB40 2315/2318 -RA BKN014=

TAF EPPW 302300Z 3100/0109 28006KT CAVOK=

TAF EPRA 231400Z 2315/2324 33006KT 9999 BKN040=

TAF EPSN 231400Z 2315/2324 29008KT 9999 BKN020
BECMG 2317/2320 VRB03KT SCT025=

TAF EPTM 231400Z 2315/2324 34010KT 9999 BKN040 BECMG 2320/2322
VRB03KT BKN020=

TAF EPTM 051100Z 28010KT 9999 SCT040 PROB40 TEMPO 0512/0515
27015G26KT 6000 -SHRA BKN020CB=
Awiacja.imgw.pl jest pogodowym serwisem informacyjnym
Instytutu Meteorologii i Gospodarki Wodnej Państwowego Instytutu Badawczego.
Copyright IMGW PIB 2009-2011© Wszelkie prawa zastrzeżone.